sensor_id;sensor_type;location;lat;lon;timestamp;temperature;humidity
29237;DHT22;16266;50.866;4.398;2023-04-29T00:00:42;12.10;99.90
29237;DHT22;16266;50.866;4.398;2023-04-29T00:03:08;11.90;99.90
29237;DHT22;16266;50.866;4.398;2023-04-29T00:05:33;11.80;99.90
29237;DHT22;16266;50.866;4.398;2023-04-29T00:08:00;11.80;99.90
29237;DHT22;16266;50.866;4.398;2023-04-29T00:10:25;11.70;99.90
29237;DHT22;16266;50.866;4.398;2023-04-29T00:16:13;11.60;99.90
29237;DHT22;16266;50.866;4.398;2023-04-29T00:18:40;11.50;99.90
29237;DHT22;16266;50.866;4.398;2023-04-29T00:24:29;11.40;99.90
29237;DHT22;16266;50.866;4.398;2023-04-29T00:26:55;11.40;99.90
29237;DHT22;16266;50.866;4.398;2023-04-29T00:32:43;11.60;99.90
29237;DHT22;16266;50.866;4.398;2023-04-29T00:35:12;11.70;99.90
29237;DHT22;16266;50.866;4.398;2023-04-29T00:54:46;11.50;99.90
29237;DHT22;16266;50.866;4.398;2023-04-29T00:57:12;11.50;99.90
29237;DHT22;16266;50.866;4.398;2023-04-29T00:59:38;11.50;99.90
29237;DHT22;16266;50.866;4.398;2023-04-29T01:02:04;11.50;99.90
29237;DHT22;16266;50.866;4.398;2023-04-29T01:04:30;11.50;99.90
29237;DHT22;16266;50.866;4.398;2023-04-29T01:07:17;11.40;99.90
29237;DHT22;16266;50.866;4.398;2023-04-29T01:17:35;11.40;99.90
29237;DHT22;16266;50.866;4.398;2023-04-29T01:20:03;11.30;99.90
29237;DHT22;16266;50.866;4.398;2023-04-29T01:22:29;11.40;99.90
29237;DHT22;16266;50.866;4.398;2023-04-29T01:24:55;11.40;99.90
29237;DHT22;16266;50.866;4.398;2023-04-29T01:33:40;11.40;99.90
29237;DHT22;16266;50.866;4.398;2023-04-29T01:39:23;11.40;99.90
29237;DHT22;16266;50.866;4.398;2023-04-29T01:42:14;11.30;99.90
29237;DHT22;16266;50.866;4.398;2023-04-29T01:48:04;11.30;99.90
29237;DHT22;16266;50.866;4.398;2023-04-29T01:53:52;11.20;99.90
29237;DHT22;16266;50.866;4.398;2023-04-29T01:56:18;11.10;99.90
29237;DHT22;16266;50.866;4.398;2023-04-29T01:58:43;11.10;99.90
29237;DHT22;16266;50.866;4.398;2023-04-29T02:01:09;11.00;99.90
29237;DHT22;16266;50.866;4.398;2023-04-29T02:03:36;10.90;99.90
29237;DHT22;16266;50.866;4.398;2023-04-29T02:06:02;10.80;99.90
29237;DHT22;16266;50.866;4.398;2023-04-29T02:08:27;10.60;99.90
29237;DHT22;16266;50.866;4.398;2023-04-29T02:10:57;10.60;99.90
29237;DHT22;16266;50.866;4.398;2023-04-29T02:13:23;10.60;99.90
29237;DHT22;16266;50.866;4.398;2023-04-29T02:15:49;10.70;99.90
29237;DHT22;16266;50.866;4.398;2023-04-29T02:18:15;10.70;99.90
29237;DHT22;16266;50.866;4.398;2023-04-29T02:20:41;10.60;99.90
29237;DHT22;16266;50.866;4.398;2023-04-29T02:23:07;10.60;99.90
29237;DHT22;16266;50.866;4.398;2023-04-29T02:25:33;10.50;99.90
29237;DHT22;16266;50.866;4.398;2023-04-29T02:27:59;10.50;99.90
29237;DHT22;16266;50.866;4.398;2023-04-29T02:30:24;10.50;99.90
29237;DHT22;16266;50.866;4.398;2023-04-29T02:32:50;10.40;99.90
29237;DHT22;16266;50.866;4.398;2023-04-29T02:38:39;10.50;99.90
29237;DHT22;16266;50.866;4.398;2023-04-29T02:43:35;10.40;99.90
29237;DHT22;16266;50.866;4.398;2023-04-29T02:46:01;10.50;99.90
29237;DHT22;16266;50.866;4.398;2023-04-29T02:53:59;10.60;99.90
29237;DHT22;16266;50.866;4.398;2023-04-29T02:56:25;10.60;99.90
29237;DHT22;16266;50.866;4.398;2023-04-29T02:58:50;10.60;99.90
29237;DHT22;16266;50.866;4.398;2023-04-29T03:01:16;10.50;99.90
29237;DHT22;16266;50.866;4.398;2023-04-29T03:03:42;10.50;99.90
29237;DHT22;16266;50.866;4.398;2023-04-29T03:06:07;10.40;99.90
29237;DHT22;16266;50.866;4.398;2023-04-29T03:08:33;10.30;99.90
29237;DHT22;16266;50.866;4.398;2023-04-29T03:11:00;10.20;99.90
29237;DHT22;16266;50.866;4.398;2023-04-29T03:13:25;10.20;99.90
29237;DHT22;16266;50.866;4.398;2023-04-29T03:15:51;10.20;99.90
29237;DHT22;16266;50.866;4.398;2023-04-29T03:18:17;10.20;99.90
29237;DHT22;16266;50.866;4.398;2023-04-29T03:20:43;10.20;99.90
29237;DHT22;16266;50.866;4.398;2023-04-29T03:23:08;10.20;99.90
29237;DHT22;16266;50.866;4.398;2023-04-29T03:25:34;10.20;99.90
29237;DHT22;16266;50.866;4.398;2023-04-29T03:28:01;10.10;99.90
29237;DHT22;16266;50.866;4.398;2023-04-29T03:30:27;10.10;99.90
29237;DHT22;16266;50.866;4.398;2023-04-29T03:32:52;10.10;99.90
29237;DHT22;16266;50.866;4.398;2023-04-29T03:35:18;10.10;99.90
29237;DHT22;16266;50.866;4.398;2023-04-29T03:37:44;10.20;99.90
29237;DHT22;16266;50.866;4.398;2023-04-29T03:40:10;10.30;99.90
29237;DHT22;16266;50.866;4.398;2023-04-29T03:42:36;10.40;99.90
29237;DHT22;16266;50.866;4.398;2023-04-29T03:48:24;10.40;99.90
29237;DHT22;16266;50.866;4.398;2023-04-29T03:51:11;10.30;99.90
29237;DHT22;16266;50.866;4.398;2023-04-29T03:53:38;10.20;99.90
29237;DHT22;16266;50.866;4.398;2023-04-29T03:56:04;10.20;99.90
29237;DHT22;16266;50.866;4.398;2023-04-29T03:58:30;10.20;99.90
29237;DHT22;16266;50.866;4.398;2023-04-29T04:00:55;10.30;99.90
29237;DHT22;16266;50.866;4.398;2023-04-29T04:03:21;10.40;99.90
29237;DHT22;16266;50.866;4.398;2023-04-29T04:05:48;10.40;99.90
29237;DHT22;16266;50.866;4.398;2023-04-29T04:08:13;10.30;99.90
29237;DHT22;16266;50.866;4.398;2023-04-29T04:10:39;10.30;99.90
29237;DHT22;16266;50.866;4.398;2023-04-29T04:13:05;10.30;99.90
29237;DHT22;16266;50.866;4.398;2023-04-29T04:15:31;10.30;99.90
29237;DHT22;16266;50.866;4.398;2023-04-29T04:17:56;10.20;99.90
29237;DHT22;16266;50.866;4.398;2023-04-29T04:20:22;10.10;99.90
29237;DHT22;16266;50.866;4.398;2023-04-29T04:22:48;10.10;99.90
29237;DHT22;16266;50.866;4.398;2023-04-29T04:25:14;10.20;99.90
29237;DHT22;16266;50.866;4.398;2023-04-29T04:27:39;10.20;99.90
29237;DHT22;16266;50.866;4.398;2023-04-29T04:30:06;10.20;99.90
29237;DHT22;16266;50.866;4.398;2023-04-29T04:32:31;10.20;99.90
29237;DHT22;16266;50.866;4.398;2023-04-29T04:34:57;10.20;99.90
29237;DHT22;16266;50.866;4.398;2023-04-29T04:37:23;10.20;99.90
29237;DHT22;16266;50.866;4.398;2023-04-29T04:39:48;10.30;99.90
29237;DHT22;16266;50.866;4.398;2023-04-29T04:42:21;10.30;99.90
29237;DHT22;16266;50.866;4.398;2023-04-29T04:44:47;10.30;99.90
29237;DHT22;16266;50.866;4.398;2023-04-29T04:47:13;10.20;99.90
29237;DHT22;16266;50.866;4.398;2023-04-29T04:49:39;10.20;99.90
29237;DHT22;16266;50.866;4.398;2023-04-29T04:52:04;10.30;99.90
29237;DHT22;16266;50.866;4.398;2023-04-29T04:54:30;10.30;99.90
29237;DHT22;16266;50.866;4.398;2023-04-29T04:56:56;10.20;99.90
29237;DHT22;16266;50.866;4.398;2023-04-29T04:59:22;10.30;99.90
29237;DHT22;16266;50.866;4.398;2023-04-29T05:01:47;10.20;99.90
29237;DHT22;16266;50.866;4.398;2023-04-29T05:04:13;10.30;99.90
29237;DHT22;16266;50.866;4.398;2023-04-29T05:06:40;10.20;99.90
29237;DHT22;16266;50.866;4.398;2023-04-29T05:09:05;10.30;99.90
29237;DHT22;16266;50.866;4.398;2023-04-29T05:11:31;10.30;99.90
29237;DHT22;16266;50.866;4.398;2023-04-29T05:13:57;10.30;99.90
29237;DHT22;16266;50.866;4.398;2023-04-29T05:16:22;10.30;99.90
29237;DHT22;16266;50.866;4.398;2023-04-29T05:18:48;10.30;99.90
29237;DHT22;16266;50.866;4.398;2023-04-29T05:21:14;10.30;99.90
29237;DHT22;16266;50.866;4.398;2023-04-29T05:23:39;10.40;99.90
29237;DHT22;16266;50.866;4.398;2023-04-29T05:26:05;10.50;99.90
29237;DHT22;16266;50.866;4.398;2023-04-29T05:28:31;10.40;99.90
29237;DHT22;16266;50.866;4.398;2023-04-29T05:30:56;10.40;99.90
29237;DHT22;16266;50.866;4.398;2023-04-29T05:33:22;10.40;99.90
29237;DHT22;16266;50.866;4.398;2023-04-29T05:35:48;10.40;99.90
29237;DHT22;16266;50.866;4.398;2023-04-29T05:38:13;10.40;99.90
29237;DHT22;16266;50.866;4.398;2023-04-29T05:40:39;10.30;99.90
29237;DHT22;16266;50.866;4.398;2023-04-29T05:43:05;10.30;99.90
29237;DHT22;16266;50.866;4.398;2023-04-29T05:45:30;10.20;99.90
29237;DHT22;16266;50.866;4.398;2023-04-29T05:47:56;10.20;99.90
29237;DHT22;16266;50.866;4.398;2023-04-29T05:50:22;10.20;99.90
29237;DHT22;16266;50.866;4.398;2023-04-29T05:52:47;10.20;99.90
29237;DHT22;16266;50.866;4.398;2023-04-29T05:55:13;10.20;99.90
29237;DHT22;16266;50.866;4.398;2023-04-29T05:57:39;10.10;99.90
29237;DHT22;16266;50.866;4.398;2023-04-29T06:00:06;10.20;99.90
29237;DHT22;16266;50.866;4.398;2023-04-29T06:02:32;10.20;99.90
29237;DHT22;16266;50.866;4.398;2023-04-29T06:04:58;10.20;99.90
29237;DHT22;16266;50.866;4.398;2023-04-29T06:07:24;10.10;99.90
29237;DHT22;16266;50.866;4.398;2023-04-29T06:09:51;10.10;99.90
29237;DHT22;16266;50.866;4.398;2023-04-29T06:12:16;10.20;99.90
29237;DHT22;16266;50.866;4.398;2023-04-29T06:14:42;10.20;99.90
29237;DHT22;16266;50.866;4.398;2023-04-29T06:17:08;10.30;99.90
29237;DHT22;16266;50.866;4.398;2023-04-29T06:19:34;10.30;99.90
29237;DHT22;16266;50.866;4.398;2023-04-29T06:21:59;10.40;99.90
29237;DHT22;16266;50.866;4.398;2023-04-29T06:24:25;10.40;99.90
29237;DHT22;16266;50.866;4.398;2023-04-29T06:26:51;10.50;99.90
29237;DHT22;16266;50.866;4.398;2023-04-29T06:29:16;10.50;99.90
29237;DHT22;16266;50.866;4.398;2023-04-29T06:31:42;10.50;99.90
29237;DHT22;16266;50.866;4.398;2023-04-29T06:34:08;10.50;99.90
29237;DHT22;16266;50.866;4.398;2023-04-29T06:36:33;10.50;99.90
29237;DHT22;16266;50.866;4.398;2023-04-29T06:38:59;10.50;99.90
29237;DHT22;16266;50.866;4.398;2023-04-29T06:41:25;10.50;99.90
29237;DHT22;16266;50.866;4.398;2023-04-29T06:43:51;10.60;99.90
29237;DHT22;16266;50.866;4.398;2023-04-29T06:46:16;10.60;99.90
29237;DHT22;16266;50.866;4.398;2023-04-29T06:48:42;10.70;99.90
29237;DHT22;16266;50.866;4.398;2023-04-29T06:51:08;10.50;99.90
29237;DHT22;16266;50.866;4.398;2023-04-29T06:53:34;10.40;99.90
29237;DHT22;16266;50.866;4.398;2023-04-29T06:55:59;10.40;99.90
29237;DHT22;16266;50.866;4.398;2023-04-29T06:58:25;10.40;99.90
29237;DHT22;16266;50.866;4.398;2023-04-29T07:00:51;10.40;99.90
29237;DHT22;16266;50.866;4.398;2023-04-29T07:03:17;10.40;99.90
29237;DHT22;16266;50.866;4.398;2023-04-29T07:05:44;10.40;99.90
29237;DHT22;16266;50.866;4.398;2023-04-29T07:08:11;10.50;99.90
29237;DHT22;16266;50.866;4.398;2023-04-29T07:10:37;10.50;99.90
29237;DHT22;16266;50.866;4.398;2023-04-29T07:13:03;10.60;99.90
29237;DHT22;16266;50.866;4.398;2023-04-29T07:15:32;10.80;99.90
29237;DHT22;16266;50.866;4.398;2023-04-29T07:17:58;10.80;99.90
29237;DHT22;16266;50.866;4.398;2023-04-29T07:20:25;10.70;99.90
29237;DHT22;16266;50.866;4.398;2023-04-29T07:22:51;10.70;99.90
29237;DHT22;16266;50.866;4.398;2023-04-29T07:25:17;10.70;99.90
29237;DHT22;16266;50.866;4.398;2023-04-29T07:27:45;10.80;99.90
29237;DHT22;16266;50.866;4.398;2023-04-29T07:30:10;11.00;99.90
29237;DHT22;16266;50.866;4.398;2023-04-29T07:32:36;11.20;99.90
29237;DHT22;16266;50.866;4.398;2023-04-29T07:35:02;11.30;99.90
29237;DHT22;16266;50.866;4.398;2023-04-29T07:37:28;11.40;99.90
29237;DHT22;16266;50.866;4.398;2023-04-29T07:39:53;11.40;99.90
29237;DHT22;16266;50.866;4.398;2023-04-29T07:42:19;11.30;99.90
29237;DHT22;16266;50.866;4.398;2023-04-29T07:44:45;11.30;99.90
29237;DHT22;16266;50.866;4.398;2023-04-29T07:47:11;11.40;99.90
29237;DHT22;16266;50.866;4.398;2023-04-29T07:49:37;11.50;99.90
29237;DHT22;16266;50.866;4.398;2023-04-29T07:52:06;11.60;99.90
29237;DHT22;16266;50.866;4.398;2023-04-29T07:54:35;11.70;99.90
29237;DHT22;16266;50.866;4.398;2023-04-29T07:57:01;11.90;99.90
29237;DHT22;16266;50.866;4.398;2023-04-29T07:59:29;11.70;99.90
29237;DHT22;16266;50.866;4.398;2023-04-29T08:01:55;11.70;99.90
29237;DHT22;16266;50.866;4.398;2023-04-29T08:04:21;11.80;99.90
29237;DHT22;16266;50.866;4.398;2023-04-29T08:06:47;11.90;99.90
29237;DHT22;16266;50.866;4.398;2023-04-29T08:09:14;12.10;99.90
29237;DHT22;16266;50.866;4.398;2023-04-29T08:11:40;12.50;99.90
29237;DHT22;16266;50.866;4.398;2023-04-29T08:14:06;12.90;99.90
29237;DHT22;16266;50.866;4.398;2023-04-29T08:16:32;13.30;99.90
29237;DHT22;16266;50.866;4.398;2023-04-29T08:18:58;14.00;99.90
29237;DHT22;16266;50.866;4.398;2023-04-29T08:21:30;14.30;99.90
29237;DHT22;16266;50.866;4.398;2023-04-29T08:23:57;14.40;99.90
29237;DHT22;16266;50.866;4.398;2023-04-29T08:26:22;14.60;99.90
29237;DHT22;16266;50.866;4.398;2023-04-29T08:28:48;14.90;99.90
29237;DHT22;16266;50.866;4.398;2023-04-29T08:31:20;15.10;99.90
29237;DHT22;16266;50.866;4.398;2023-04-29T08:33:46;15.50;99.90
29237;DHT22;16266;50.866;4.398;2023-04-29T08:36:12;15.60;99.90
29237;DHT22;16266;50.866;4.398;2023-04-29T08:38:38;15.50;99.90
29237;DHT22;16266;50.866;4.398;2023-04-29T08:41:06;15.90;99.90
29237;DHT22;16266;50.866;4.398;2023-04-29T08:43:34;16.10;99.90
29237;DHT22;16266;50.866;4.398;2023-04-29T08:46:02;16.30;99.90
29237;DHT22;16266;50.866;4.398;2023-04-29T08:48:29;16.20;99.90
29237;DHT22;16266;50.866;4.398;2023-04-29T08:50:55;15.90;99.90
29237;DHT22;16266;50.866;4.398;2023-04-29T08:53:23;15.70;99.90
29237;DHT22;16266;50.866;4.398;2023-04-29T08:55:49;15.40;99.90
29237;DHT22;16266;50.866;4.398;2023-04-29T08:58:15;14.70;99.90
29237;DHT22;16266;50.866;4.398;2023-04-29T09:00:42;14.90;99.90
29237;DHT22;16266;50.866;4.398;2023-04-29T09:03:21;14.90;99.90
29237;DHT22;16266;50.866;4.398;2023-04-29T09:05:52;14.80;99.90
29237;DHT22;16266;50.866;4.398;2023-04-29T09:08:20;14.80;99.90
29237;DHT22;16266;50.866;4.398;2023-04-29T09:10:47;14.40;99.90
29237;DHT22;16266;50.866;4.398;2023-04-29T09:15:49;14.10;99.90
29237;DHT22;16266;50.866;4.398;2023-04-29T09:18:50;14.40;99.90
29237;DHT22;16266;50.866;4.398;2023-04-29T09:23:45;14.10;99.90
29237;DHT22;16266;50.866;4.398;2023-04-29T09:26:11;14.50;99.90
29237;DHT22;16266;50.866;4.398;2023-04-29T09:28:37;15.30;99.90
29237;DHT22;16266;50.866;4.398;2023-04-29T09:31:05;16.10;99.90
29237;DHT22;16266;50.866;4.398;2023-04-29T09:33:54;17.00;99.90
29237;DHT22;16266;50.866;4.398;2023-04-29T09:36:43;17.80;99.90
29237;DHT22;16266;50.866;4.398;2023-04-29T09:39:12;17.40;99.90
29237;DHT22;16266;50.866;4.398;2023-04-29T09:44:28;17.80;99.90
29237;DHT22;16266;50.866;4.398;2023-04-29T09:49:26;17.50;99.90
29237;DHT22;16266;50.866;4.398;2023-04-29T09:52:00;17.20;99.90
29237;DHT22;16266;50.866;4.398;2023-04-29T09:54:28;16.70;99.90
29237;DHT22;16266;50.866;4.398;2023-04-29T09:56:55;16.90;99.90
29237;DHT22;16266;50.866;4.398;2023-04-29T09:59:22;16.80;99.90
29237;DHT22;16266;50.866;4.398;2023-04-29T10:01:49;17.10;99.90
29237;DHT22;16266;50.866;4.398;2023-04-29T10:04:16;18.20;99.90
29237;DHT22;16266;50.866;4.398;2023-04-29T10:06:44;19.20;99.90
29237;DHT22;16266;50.866;4.398;2023-04-29T10:09:13;20.20;99.90
29237;DHT22;16266;50.866;4.398;2023-04-29T10:11:44;22.10;99.90
29237;DHT22;16266;50.866;4.398;2023-04-29T10:14:15;23.60;99.90
29237;DHT22;16266;50.866;4.398;2023-04-29T10:17:32;24.10;99.90
29237;DHT22;16266;50.866;4.398;2023-04-29T10:19:37;25.00;99.90
29237;DHT22;16266;50.866;4.398;2023-04-29T10:22:08;25.90;96.30
29237;DHT22;16266;50.866;4.398;2023-04-29T10:24:38;26.10;94.40
29237;DHT22;16266;50.866;4.398;2023-04-29T10:27:06;26.50;93.20
29237;DHT22;16266;50.866;4.398;2023-04-29T10:29:35;25.50;91.90
29237;DHT22;16266;50.866;4.398;2023-04-29T10:32:03;25.20;93.70
29237;DHT22;16266;50.866;4.398;2023-04-29T10:34:31;24.20;93.90
29237;DHT22;16266;50.866;4.398;2023-04-29T10:36:58;22.20;98.50
29237;DHT22;16266;50.866;4.398;2023-04-29T10:39:44;20.70;99.90
29237;DHT22;16266;50.866;4.398;2023-04-29T10:42:25;19.50;99.90
29237;DHT22;16266;50.866;4.398;2023-04-29T10:45:33;18.80;99.90
29237;DHT22;16266;50.866;4.398;2023-04-29T10:50:32;17.40;99.90
29237;DHT22;16266;50.866;4.398;2023-04-29T10:53:01;17.70;99.90
29237;DHT22;16266;50.866;4.398;2023-04-29T10:55:27;18.30;99.90
29237;DHT22;16266;50.866;4.398;2023-04-29T10:57:56;18.50;99.90
29237;DHT22;16266;50.866;4.398;2023-04-29T11:00:29;18.60;99.90
29237;DHT22;16266;50.866;4.398;2023-04-29T11:02:56;19.40;99.90
29237;DHT22;16266;50.866;4.398;2023-04-29T11:05:32;19.60;99.90
29237;DHT22;16266;50.866;4.398;2023-04-29T11:08:11;19.70;99.90
29237;DHT22;16266;50.866;4.398;2023-04-29T11:10:40;19.90;99.90
29237;DHT22;16266;50.866;4.398;2023-04-29T11:13:27;20.30;99.90
29237;DHT22;16266;50.866;4.398;2023-04-29T11:16:03;20.70;99.90
29237;DHT22;16266;50.866;4.398;2023-04-29T11:18:30;20.40;99.90
29237;DHT22;16266;50.866;4.398;2023-04-29T11:23:37;19.40;99.90
29237;DHT22;16266;50.866;4.398;2023-04-29T11:26:03;18.90;99.90
29237;DHT22;16266;50.866;4.398;2023-04-29T11:28:30;18.50;99.90
29237;DHT22;16266;50.866;4.398;2023-04-29T11:30:56;18.80;99.90
29237;DHT22;16266;50.866;4.398;2023-04-29T11:33:23;19.50;99.90
29237;DHT22;16266;50.866;4.398;2023-04-29T11:35:50;19.90;99.90
29237;DHT22;16266;50.866;4.398;2023-04-29T11:38:16;20.00;99.90
29237;DHT22;16266;50.866;4.398;2023-04-29T11:40:47;20.60;99.90
29237;DHT22;16266;50.866;4.398;2023-04-29T11:43:18;21.10;99.90
29237;DHT22;16266;50.866;4.398;2023-04-29T11:45:47;21.40;99.90
29237;DHT22;16266;50.866;4.398;2023-04-29T11:48:23;21.80;99.90
29237;DHT22;16266;50.866;4.398;2023-04-29T11:50:52;21.70;99.90
29237;DHT22;16266;50.866;4.398;2023-04-29T11:53:22;21.50;99.90
29237;DHT22;16266;50.866;4.398;2023-04-29T11:55:52;21.30;99.90
29237;DHT22;16266;50.866;4.398;2023-04-29T11:58:20;20.60;99.90
29237;DHT22;16266;50.866;4.398;2023-04-29T12:00:47;19.60;99.90
29237;DHT22;16266;50.866;4.398;2023-04-29T12:03:18;18.60;99.90
29237;DHT22;16266;50.866;4.398;2023-04-29T12:08:14;18.10;99.90
29237;DHT22;16266;50.866;4.398;2023-04-29T12:10:40;18.60;99.90
29237;DHT22;16266;50.866;4.398;2023-04-29T12:13:06;19.10;99.90
29237;DHT22;16266;50.866;4.398;2023-04-29T12:15:32;19.70;99.90
29237;DHT22;16266;50.866;4.398;2023-04-29T12:17:59;20.40;99.90
29237;DHT22;16266;50.866;4.398;2023-04-29T12:20:26;21.00;99.90
29237;DHT22;16266;50.866;4.398;2023-04-29T12:22:53;21.40;99.90
29237;DHT22;16266;50.866;4.398;2023-04-29T12:25:24;21.10;99.90
29237;DHT22;16266;50.866;4.398;2023-04-29T12:27:50;21.70;99.90
29237;DHT22;16266;50.866;4.398;2023-04-29T12:30:15;21.90;99.90
29237;DHT22;16266;50.866;4.398;2023-04-29T12:32:41;22.10;99.90
29237;DHT22;16266;50.866;4.398;2023-04-29T12:35:14;22.20;99.90
29237;DHT22;16266;50.866;4.398;2023-04-29T12:37:41;22.70;99.90
29237;DHT22;16266;50.866;4.398;2023-04-29T12:40:07;23.30;98.30
29237;DHT22;16266;50.866;4.398;2023-04-29T12:42:38;23.70;97.60
29237;DHT22;16266;50.866;4.398;2023-04-29T12:45:05;23.80;96.40
29237;DHT22;16266;50.866;4.398;2023-04-29T12:47:32;24.10;95.40
29237;DHT22;16266;50.866;4.398;2023-04-29T12:50:01;23.60;94.50
29237;DHT22;16266;50.866;4.398;2023-04-29T12:52:27;22.60;95.10
29237;DHT22;16266;50.866;4.398;2023-04-29T12:54:52;22.50;95.60
29237;DHT22;16266;50.866;4.398;2023-04-29T12:57:18;22.20;96.20
29237;DHT22;16266;50.866;4.398;2023-04-29T12:59:44;22.30;95.60
29237;DHT22;16266;50.866;4.398;2023-04-29T13:02:09;22.20;96.10
29237;DHT22;16266;50.866;4.398;2023-04-29T13:04:36;22.30;96.40
29237;DHT22;16266;50.866;4.398;2023-04-29T13:07:02;22.20;97.10
29237;DHT22;16266;50.866;4.398;2023-04-29T13:09:28;22.60;95.30
29237;DHT22;16266;50.866;4.398;2023-04-29T13:11:55;22.80;94.10
29237;DHT22;16266;50.866;4.398;2023-04-29T13:14:21;22.90;94.00
29237;DHT22;16266;50.866;4.398;2023-04-29T13:16:47;23.10;94.40
29237;DHT22;16266;50.866;4.398;2023-04-29T13:19:14;23.40;95.00
29237;DHT22;16266;50.866;4.398;2023-04-29T13:21:41;23.50;93.70
29237;DHT22;16266;50.866;4.398;2023-04-29T13:24:07;23.20;93.30
29237;DHT22;16266;50.866;4.398;2023-04-29T13:26:32;23.30;94.10
29237;DHT22;16266;50.866;4.398;2023-04-29T13:28:58;23.40;94.10
29237;DHT22;16266;50.866;4.398;2023-04-29T13:31:24;23.10;94.20
29237;DHT22;16266;50.866;4.398;2023-04-29T13:33:50;22.90;94.90
29237;DHT22;16266;50.866;4.398;2023-04-29T13:36:17;21.70;95.70
29237;DHT22;16266;50.866;4.398;2023-04-29T13:38:42;21.00;98.60
29237;DHT22;16266;50.866;4.398;2023-04-29T13:41:08;20.70;98.70
29237;DHT22;16266;50.866;4.398;2023-04-29T13:43:34;19.80;99.90
29237;DHT22;16266;50.866;4.398;2023-04-29T13:45:59;19.20;99.90
29237;DHT22;16266;50.866;4.398;2023-04-29T13:48:25;19.10;99.90
29237;DHT22;16266;50.866;4.398;2023-04-29T13:50:52;19.80;99.90
29237;DHT22;16266;50.866;4.398;2023-04-29T13:53:17;20.70;99.90
29237;DHT22;16266;50.866;4.398;2023-04-29T13:55:43;21.30;99.90
29237;DHT22;16266;50.866;4.398;2023-04-29T13:58:09;22.20;99.90
29237;DHT22;16266;50.866;4.398;2023-04-29T14:00:35;22.30;99.00
29237;DHT22;16266;50.866;4.398;2023-04-29T14:03:00;22.30;97.80
29237;DHT22;16266;50.866;4.398;2023-04-29T14:05:27;22.80;97.70
29237;DHT22;16266;50.866;4.398;2023-04-29T14:07:53;23.00;98.00
29237;DHT22;16266;50.866;4.398;2023-04-29T14:10:18;23.00;97.30
29237;DHT22;16266;50.866;4.398;2023-04-29T14:12:44;23.00;97.00
29237;DHT22;16266;50.866;4.398;2023-04-29T14:15:10;23.10;96.50
29237;DHT22;16266;50.866;4.398;2023-04-29T14:17:36;22.90;96.00
29237;DHT22;16266;50.866;4.398;2023-04-29T14:20:02;22.60;95.70
29237;DHT22;16266;50.866;4.398;2023-04-29T14:22:28;22.60;94.80
29237;DHT22;16266;50.866;4.398;2023-04-29T14:24:54;22.50;94.60
29237;DHT22;16266;50.866;4.398;2023-04-29T14:27:19;22.90;94.60
29237;DHT22;16266;50.866;4.398;2023-04-29T14:29:46;23.20;94.10
29237;DHT22;16266;50.866;4.398;2023-04-29T14:32:12;23.70;94.00
29237;DHT22;16266;50.866;4.398;2023-04-29T14:34:37;23.00;93.30
29237;DHT22;16266;50.866;4.398;2023-04-29T14:37:03;22.40;93.80
29237;DHT22;16266;50.866;4.398;2023-04-29T14:39:29;22.20;96.10
29237;DHT22;16266;50.866;4.398;2023-04-29T14:41:55;22.40;95.70
29237;DHT22;16266;50.866;4.398;2023-04-29T14:44:21;22.20;94.50
29237;DHT22;16266;50.866;4.398;2023-04-29T14:46:47;21.90;95.90
29237;DHT22;16266;50.866;4.398;2023-04-29T14:49:13;21.90;95.60
29237;DHT22;16266;50.866;4.398;2023-04-29T14:51:38;21.70;95.40
29237;DHT22;16266;50.866;4.398;2023-04-29T14:54:04;21.90;94.80
29237;DHT22;16266;50.866;4.398;2023-04-29T14:56:30;22.20;94.60
29237;DHT22;16266;50.866;4.398;2023-04-29T14:58:55;22.40;95.30
29237;DHT22;16266;50.866;4.398;2023-04-29T15:01:21;22.20;94.10
29237;DHT22;16266;50.866;4.398;2023-04-29T15:03:47;22.10;93.80
29237;DHT22;16266;50.866;4.398;2023-04-29T15:06:13;21.80;94.80
29237;DHT22;16266;50.866;4.398;2023-04-29T15:08:51;21.70;94.70
29237;DHT22;16266;50.866;4.398;2023-04-29T15:11:17;21.70;95.00
29237;DHT22;16266;50.866;4.398;2023-04-29T15:13:43;21.40;95.30
29237;DHT22;16266;50.866;4.398;2023-04-29T15:16:09;21.40;97.00
29237;DHT22;16266;50.866;4.398;2023-04-29T15:18:35;20.70;96.50
29237;DHT22;16266;50.866;4.398;2023-04-29T15:21:00;19.90;98.10
29237;DHT22;16266;50.866;4.398;2023-04-29T15:23:26;19.60;99.90
29237;DHT22;16266;50.866;4.398;2023-04-29T15:25:52;19.70;99.70
29237;DHT22;16266;50.866;4.398;2023-04-29T15:28:18;19.50;99.80
29237;DHT22;16266;50.866;4.398;2023-04-29T15:30:43;19.00;99.90
29237;DHT22;16266;50.866;4.398;2023-04-29T15:33:11;18.80;99.90
29237;DHT22;16266;50.866;4.398;2023-04-29T15:35:36;18.80;99.90
29237;DHT22;16266;50.866;4.398;2023-04-29T15:38:02;18.70;99.90
29237;DHT22;16266;50.866;4.398;2023-04-29T15:40:28;18.90;99.90
29237;DHT22;16266;50.866;4.398;2023-04-29T15:42:53;18.50;99.90
29237;DHT22;16266;50.866;4.398;2023-04-29T15:45:19;18.50;99.90
29237;DHT22;16266;50.866;4.398;2023-04-29T15:47:45;18.40;99.90
29237;DHT22;16266;50.866;4.398;2023-04-29T15:50:11;18.40;99.90
29237;DHT22;16266;50.866;4.398;2023-04-29T15:52:37;18.60;99.90
29237;DHT22;16266;50.866;4.398;2023-04-29T15:55:04;18.50;99.90
29237;DHT22;16266;50.866;4.398;2023-04-29T15:57:29;18.60;99.90
29237;DHT22;16266;50.866;4.398;2023-04-29T15:59:55;18.50;99.90
29237;DHT22;16266;50.866;4.398;2023-04-29T16:02:21;18.80;99.90
29237;DHT22;16266;50.866;4.398;2023-04-29T16:04:46;19.00;99.90
29237;DHT22;16266;50.866;4.398;2023-04-29T16:07:12;18.60;99.90
29237;DHT22;16266;50.866;4.398;2023-04-29T16:09:38;18.40;99.90
29237;DHT22;16266;50.866;4.398;2023-04-29T16:12:04;18.00;99.90
29237;DHT22;16266;50.866;4.398;2023-04-29T16:14:30;18.00;99.90
29237;DHT22;16266;50.866;4.398;2023-04-29T16:16:56;17.80;99.90
29237;DHT22;16266;50.866;4.398;2023-04-29T16:19:21;17.70;99.90
29237;DHT22;16266;50.866;4.398;2023-04-29T16:21:47;17.60;99.90
29237;DHT22;16266;50.866;4.398;2023-04-29T16:24:13;17.70;99.90
29237;DHT22;16266;50.866;4.398;2023-04-29T16:26:39;17.70;99.90
29237;DHT22;16266;50.866;4.398;2023-04-29T16:29:06;17.70;99.90
29237;DHT22;16266;50.866;4.398;2023-04-29T16:31:32;17.70;99.90
29237;DHT22;16266;50.866;4.398;2023-04-29T16:33:58;17.40;99.90
29237;DHT22;16266;50.866;4.398;2023-04-29T16:36:24;17.30;99.90
29237;DHT22;16266;50.866;4.398;2023-04-29T16:38:50;17.30;99.90
29237;DHT22;16266;50.866;4.398;2023-04-29T16:41:18;17.40;99.90
29237;DHT22;16266;50.866;4.398;2023-04-29T16:43:45;17.50;99.90
29237;DHT22;16266;50.866;4.398;2023-04-29T16:46:12;17.70;99.90
29237;DHT22;16266;50.866;4.398;2023-04-29T16:48:38;17.80;99.90
29237;DHT22;16266;50.866;4.398;2023-04-29T16:51:04;17.60;99.90
29237;DHT22;16266;50.866;4.398;2023-04-29T16:53:29;17.60;99.90